»·PEaware :: N815M KSMO-KWJF

N815M :: KSMO-KWJF

FLIGHT INFORMATION

Flight Status: Arrived
Operator: Privately registered:
United States
More flights under this callsign
Pilot: Robert C. (30425)
Aircraft: BEECH AIRCRAFT DEBONAIR BONANZA
(BE33)
More flights by this aircraft type
Origin: KSMO Santa Monica Mun
United States
Destination: KWJF Gen Fox
United States
More flights between these airports :: More routes between these airports
Route: VTU T257 RZS V12 PMD
File this flight plan on PilotEdge
Remarks:
Altitude:
(Current/Filed)
6,500ft
Speed:
(Current/Filed)
150kts
Departed: 19-Sep-20 12:30 PM
Arrived: 19-Sep-20 01:30 PM
Distance/Time
Traveled:
45nm/1:00
Distance/Time
To Go:
Arrived

Flight Plot

Page will automatically refresh every two minutes.

Flight plan parsing failed; only flown route is shown


Map Options




Map Legend


Flown Route
Filed Route
Departure Airport
Arrival Airport
Navaid (VOR, NDB)
Fix

Horizontal Profiles

Position Reports

Time Latitude Longitude Heading Altitude Ground
Speed
19-Sep-20 12:10 34.017590 -118.445205 330 178ft 0kts
19-Sep-20 12:11 34.017590 -118.445205 330 178ft 0kts
19-Sep-20 12:11 34.017590 -118.445205 330 178ft 0kts
19-Sep-20 12:12 34.017590 -118.445205 330 178ft 0kts
19-Sep-20 12:13 34.017589 -118.445205 330 178ft 0kts
19-Sep-20 12:14 34.017589 -118.445205 330 178ft 0kts
19-Sep-20 12:15 34.017589 -118.445205 330 178ft 0kts
19-Sep-20 12:16 34.017589 -118.445205 330 178ft 0kts
19-Sep-20 12:17 34.017589 -118.445205 330 178ft 0kts
19-Sep-20 12:18 34.017589 -118.445205 330 178ft 0kts
19-Sep-20 12:19 34.017589 -118.445205 330 178ft 0kts
19-Sep-20 12:20 34.017589 -118.445205 330 178ft 0kts
19-Sep-20 12:21 34.017589 -118.445205 330 178ft 0kts
19-Sep-20 12:22 34.017589 -118.445205 330 178ft 0kts
19-Sep-20 12:23 34.017589 -118.445205 330 178ft 0kts
19-Sep-20 12:24 34.018072 -118.445131 15 178ft 4kts
19-Sep-20 12:25 34.019410 -118.445553 1 178ft 8kts
19-Sep-20 12:26 34.018878 -118.446563 235 178ft 4kts
19-Sep-20 12:27 34.018870 -118.446861 313 178ft 0kts
19-Sep-20 12:28 34.019024 -118.447068 307 178ft 7kts
19-Sep-20 12:29 34.008036 -118.461185 226 387ft 94kts
19-Sep-20 12:30 34.008198 -118.490385 295 1085ft 93kts
19-Sep-20 12:31 34.026713 -118.515925 314 1588ft 109kts
19-Sep-20 12:32 34.036514 -118.553441 260 2239ft 136kts
19-Sep-20 12:33 34.040936 -118.600639 276 2962ft 141kts
19-Sep-20 12:34 34.048500 -118.646444 276 3748ft 137kts
19-Sep-20 12:35 34.056271 -118.693481 277 4012ft 158kts
19-Sep-20 12:36 34.065178 -118.746740 277 4002ft 160kts
19-Sep-20 12:37 34.073276 -118.795638 277 4627ft 137kts
19-Sep-20 12:38 34.080395 -118.838750 277 5405ft 126kts
19-Sep-20 12:39 34.087063 -118.879230 277 6192ft 119kts
19-Sep-20 12:40 34.093858 -118.920864 278 6516ft 141kts
19-Sep-20 12:41 34.101956 -118.969849 278 6511ft 151kts
19-Sep-20 12:42 34.110160 -119.019916 278 6512ft 152kts
19-Sep-20 12:43 34.125519 -119.067405 298 6517ft 154kts
19-Sep-20 12:44 34.149061 -119.111133 300 6512ft 155kts
19-Sep-20 12:45 34.173001 -119.154759 300 6512ft 155kts
19-Sep-20 12:46 34.196838 -119.198107 300 6512ft 154kts
19-Sep-20 12:47 34.220690 -119.241512 300 6514ft 154kts
19-Sep-20 12:48 34.244373 -119.284656 300 6517ft 153kts
19-Sep-20 12:49 34.268079 -119.327873 300 6517ft 153kts
19-Sep-20 12:50 34.291677 -119.370957 300 6517ft 153kts
19-Sep-20 12:51 34.315264 -119.414077 300 6517ft 153kts
19-Sep-20 12:52 34.338856 -119.457259 300 6516ft 153kts
19-Sep-20 12:53 34.362512 -119.500609 300 6516ft 153kts
19-Sep-20 12:54 34.386056 -119.543785 300 6517ft 153kts
19-Sep-20 12:55 34.408036 -119.584106 299 7138ft 136kts
19-Sep-20 12:56 34.428889 -119.622588 299 7530ft 146kts
19-Sep-20 12:57 34.452160 -119.665419 299 7630ft 152kts
19-Sep-20 12:58 34.475729 -119.708868 299 7719ft 159kts
19-Sep-20 12:59 34.501086 -119.754823 310 7615ft 168kts
19-Sep-20 13:00 34.525916 -119.725594 114 7554ft 175kts
19-Sep-20 13:01 34.519466 -119.665861 89 7530ft 181kts
19-Sep-20 13:02 34.522709 -119.604617 85 7526ft 182kts
19-Sep-20 13:03 34.527288 -119.543055 84 7522ft 183kts
19-Sep-20 13:04 34.532023 -119.481083 84 7488ft 184kts
19-Sep-20 13:05 34.536743 -119.419017 84 7483ft 183kts
19-Sep-20 13:06 34.541408 -119.357071 84 7483ft 183kts
19-Sep-20 13:07 34.546060 -119.295149 84 7481ft 183kts
19-Sep-20 13:08 34.550629 -119.233555 84 7478ft 183kts
19-Sep-20 13:09 34.555169 -119.172023 85 7473ft 182kts
19-Sep-20 13:10 34.559670 -119.110542 85 7469ft 182kts
19-Sep-20 13:11 34.564137 -119.049093 85 7464ft 182kts
19-Sep-20 13:12 34.568564 -118.987753 86 7465ft 181kts
19-Sep-20 13:13 34.572990 -118.926003 86 7470ft 182kts
19-Sep-20 13:14 34.577387 -118.864213 86 7477ft 183kts
19-Sep-20 13:15 34.581767 -118.802195 86 7488ft 184kts
19-Sep-20 13:16 34.586143 -118.739666 87 7500ft 184kts
19-Sep-20 13:17 34.590445 -118.677706 88 7509ft 182kts
19-Sep-20 13:18 34.594653 -118.616930 89 7516ft 180kts
19-Sep-20 13:19 34.607123 -118.558265 67 7532ft 182kts
19-Sep-20 13:20 34.629229 -118.502186 66 7526ft 183kts
19-Sep-20 13:21 34.650647 -118.444796 67 7031ft 185kts
19-Sep-20 13:22 34.670787 -118.388903 67 6212ft 168kts
19-Sep-20 13:23 34.688374 -118.339181 67 5287ft 151kts
19-Sep-20 13:24 34.716508 -118.304637 34 4089ft 149kts
19-Sep-20 13:25 34.742602 -118.270119 69 3416ft 122kts
19-Sep-20 13:26 34.752397 -118.233977 71 3420ft 124kts
19-Sep-20 13:27 34.765796 -118.194381 69 3469ft 128kts
19-Sep-20 13:28 34.751272 -118.184560 236 2712ft 105kts
19-Sep-20 13:29 34.742515 -118.212959 254 2340ft 39kts
19-Sep-20 13:30 34.741287 -118.214800 210 2341ft 0kts
19-Sep-20 13:31 34.741287 -118.214800 210 2341ft 0kts
19-Sep-20 13:32 34.740555 -118.216813 253 2343ft 12kts
19-Sep-20 13:33 34.739101 -118.219653 162 2346ft 6kts
19-Sep-20 13:34 34.738573 -118.219247 69 2345ft 0kts
19-Sep-20 13:35 34.738573 -118.219247 69 2345ft 0kts
19-Sep-20 13:36 34.738573 -118.219247 69 2345ft 0kts
19-Sep-20 13:37 34.738573 -118.219247 69 2345ft 0kts
19-Sep-20 13:38 34.738573 -118.219247 69 2345ft 0kts
19-Sep-20 13:39 34.738573 -118.219247 69 2345ft 0kts
19-Sep-20 13:40 34.738573 -118.219247 69 2345ft 0kts
19-Sep-20 13:41 34.738573 -118.219247 69 2345ft 0kts
19-Sep-20 13:42 34.738573 -118.219247 69 2345ft 0kts
19-Sep-20 13:43 34.738573 -118.219247 69 2345ft 0kts

Navigation Log

Ident Type
Flight plan parsing failed, navigation log unavailable